Time;durP1;ratioP1;P1;durP2;ratioP2;P2;SDS_P1;SDS_P2;PMS_P1;PMS_P2;Temp;Humidity;BMP_temperature;BMP_pressure;BME280_temperature;BME280_humidity;BME280_pressure;Samples;Min_cycle;Max_cycle;Signal;HPM_P1;HPM_P2
2024/03/05 00:00:27;;;;;;;22.10;4.22;;;;;;;;;;5109771;28;20481;-28
2024/03/05 00:02:54;;;;;;;33.78;5.05;;;;;;;;;;5111480;28;20078;-32
2024/03/05 00:05:21;;;;;;;23.55;3.80;;;;;;;;;;5113817;28;20374;-30
2024/03/05 00:07:48;;;;;;;21.70;4.00;;;;;;;;;;5113313;28;20031;-28
2024/03/05 00:10:15;;;;;;;26.63;4.13;;;;;;;;;;5098714;28;20414;-28
2024/03/05 00:15:59;;;;;;;27.60;4.55;;;;;;;;;;5095911;28;20039;-34
2024/03/05 00:18:26;;;;;;;36.47;5.05;;;;;;;;;;5107264;28;20080;-32
2024/03/05 00:20:53;;;;;;;26.48;4.97;;;;;;;;;;5104525;28;20464;-30
2024/03/05 00:23:20;;;;;;;31.25;5.20;;;;;;;;;;5097614;28;20055;-33
2024/03/05 00:25:47;;;;;;;23.25;4.68;;;;;;;;;;5110790;28;20062;-30
2024/03/05 00:28:14;;;;;;;25.30;4.22;;;;;;;;;;5104203;28;20428;-31
2024/03/05 00:30:41;;;;;;;23.65;4.47;;;;;;;;;;5104572;28;20474;-29
2024/03/05 00:33:08;;;;;;;25.98;3.90;;;;;;;;;;5096904;28;20058;-30
2024/03/05 00:35:35;;;;;;;32.72;4.95;;;;;;;;;;5100011;28;20024;-32
2024/03/05 00:38:03;;;;;;;25.23;4.70;;;;;;;;;;5109787;28;20027;-34
2024/03/05 00:40:30;;;;;;;17.25;3.90;;;;;;;;;;5109857;28;20489;-33
2024/03/05 00:42:57;;;;;;;25.35;4.35;;;;;;;;;;5103606;28;20085;-31
2024/03/05 00:45:25;;;;;;;25.50;4.82;;;;;;;;;;5102569;28;20031;-28
2024/03/05 00:47:52;;;;;;;25.90;4.80;;;;;;;;;;5110858;28;20031;-30
2024/03/05 00:50:19;;;;;;;31.92;7.20;;;;;;;;;;5113535;28;20026;-34
2024/03/05 00:52:46;;;;;;;36.75;10.25;;;;;;;;;;5112860;28;20024;-31
2024/03/05 00:55:13;;;;;;;51.53;10.15;;;;;;;;;;5101485;28;20097;-32
2024/03/05 00:57:40;;;;;;;55.63;10.93;;;;;;;;;;5103401;28;20459;-29
2024/03/05 01:00:08;;;;;;;50.70;11.88;;;;;;;;;;5094331;28;20386;-29
2024/03/05 01:02:36;;;;;;;46.42;12.48;;;;;;;;;;5108661;28;20027;-31
2024/03/05 01:05:07;;;;;;;59.33;12.85;;;;;;;;;;5113177;28;20504;-35
2024/03/05 01:07:33;;;;;;;47.60;11.80;;;;;;;;;;5111867;28;20028;-30
2024/03/05 01:10:00;;;;;;;48.30;12.35;;;;;;;;;;5112213;28;20066;-31
2024/03/05 01:12:27;;;;;;;42.53;11.70;;;;;;;;;;5090087;28;20426;-29
2024/03/05 01:14:54;;;;;;;42.53;10.95;;;;;;;;;;5105036;28;20076;-31
2024/03/05 01:17:21;;;;;;;37.92;11.20;;;;;;;;;;5100674;28;20077;-30
2024/03/05 01:19:48;;;;;;;34.15;8.35;;;;;;;;;;5112677;28;20027;-31
2024/03/05 01:22:15;;;;;;;39.63;9.32;;;;;;;;;;5092339;28;20093;-31
2024/03/05 01:24:42;;;;;;;37.72;8.60;;;;;;;;;;5083282;28;20047;-32
2024/03/05 01:27:09;;;;;;;40.80;8.25;;;;;;;;;;5096100;28;20119;-32
2024/03/05 01:29:37;;;;;;;34.17;8.02;;;;;;;;;;5100124;28;20385;-29
2024/03/05 01:32:04;;;;;;;41.80;9.07;;;;;;;;;;5096119;28;20482;-31
2024/03/05 01:34:32;;;;;;;29.48;7.90;;;;;;;;;;5093180;28;20107;-29
2024/03/05 01:36:59;;;;;;;32.97;7.70;;;;;;;;;;5094668;28;20039;-31
2024/03/05 01:39:27;;;;;;;29.77;7.80;;;;;;;;;;5093318;28;20028;-35
2024/03/05 01:41:57;;;;;;;35.90;7.07;;;;;;;;;;5108336;28;20397;-29
2024/03/05 01:44:25;;;;;;;28.60;7.55;;;;;;;;;;5108308;28;20024;-29
2024/03/05 01:46:57;;;;;;;31.45;8.10;;;;;;;;;;5107468;28;20114;-31
2024/03/05 01:49:24;;;;;;;28.08;7.53;;;;;;;;;;5089618;28;20362;-29
2024/03/05 01:51:53;;;;;;;26.88;7.05;;;;;;;;;;5110250;28;20735;-29
2024/03/05 01:54:21;;;;;;;29.58;7.45;;;;;;;;;;5104354;28;20032;-30
2024/03/05 01:56:50;;;;;;;18.63;6.15;;;;;;;;;;5100271;28;20847;-29
2024/03/05 01:59:18;;;;;;;23.60;5.05;;;;;;;;;;5105036;28;20063;-30
2024/03/05 02:01:45;;;;;;;27.13;5.95;;;;;;;;;;5107650;28;20040;-31
2024/03/05 02:04:12;;;;;;;36.88;6.05;;;;;;;;;;5109408;28;20023;-29
2024/03/05 02:06:43;;;;;;;31.38;5.60;;;;;;;;;;5079922;28;20138;-31
2024/03/05 02:09:15;;;;;;;30.05;5.78;;;;;;;;;;5107406;28;20032;-33
2024/03/05 02:11:44;;;;;;;28.10;5.72;;;;;;;;;;5107794;28;20077;-30
2024/03/05 02:14:11;;;;;;;27.13;5.20;;;;;;;;;;5105399;28;20504;-31
2024/03/05 02:16:41;;;;;;;19.58;5.30;;;;;;;;;;5108326;28;20042;-30
2024/03/05 02:19:10;;;;;;;20.40;5.38;;;;;;;;;;5089301;28;20123;-32
2024/03/05 02:21:37;;;;;;;22.95;5.28;;;;;;;;;;5110228;28;20435;-32
2024/03/05 02:24:04;;;;;;;15.23;5.05;;;;;;;;;;5090839;28;20377;-31
2024/03/05 02:26:31;;;;;;;19.75;4.97;;;;;;;;;;5110245;28;20085;-29
2024/03/05 02:28:59;;;;;;;22.52;4.35;;;;;;;;;;5110507;28;20127;-31
2024/03/05 02:31:26;;;;;;;20.52;4.35;;;;;;;;;;5110042;28;20058;-29
2024/03/05 02:33:53;;;;;;;17.92;5.07;;;;;;;;;;5110561;28;20392;-29
2024/03/05 02:36:25;;;;;;;16.95;4.60;;;;;;;;;;5110658;28;20422;-30
2024/03/05 02:38:52;;;;;;;17.63;4.00;;;;;;;;;;5110434;28;20830;-32
2024/03/05 02:41:20;;;;;;;31.85;5.18;;;;;;;;;;5108373;28;20237;-30
2024/03/05 02:43:47;;;;;;;31.63;5.93;;;;;;;;;;5104909;28;20028;-32
2024/03/05 02:46:15;;;;;;;24.40;4.32;;;;;;;;;;5105606;28;20550;-29
2024/03/05 02:48:43;;;;;;;29.60;4.55;;;;;;;;;;5105584;28;20023;-31
2024/03/05 02:51:10;;;;;;;16.65;4.22;;;;;;;;;;5101318;28;20516;-29
2024/03/05 02:53:38;;;;;;;18.17;4.65;;;;;;;;;;5110616;28;20088;-30
2024/03/05 02:56:05;;;;;;;25.08;4.50;;;;;;;;;;5106128;28;20036;-30
2024/03/05 02:58:33;;;;;;;22.23;4.20;;;;;;;;;;5109884;28;20028;-32
2024/03/05 03:01:01;;;;;;;18.35;4.40;;;;;;;;;;5111479;28;20059;-33
2024/03/05 03:03:29;;;;;;;22.92;4.70;;;;;;;;;;5113649;28;20016;-29
2024/03/05 03:05:56;;;;;;;17.67;3.53;;;;;;;;;;5113320;28;20038;-31
2024/03/05 03:08:23;;;;;;;18.15;4.32;;;;;;;;;;5113099;28;20066;-30
2024/03/05 03:10:50;;;;;;;18.45;4.10;;;;;;;;;;5103839;28;20035;-31
2024/03/05 03:13:17;;;;;;;17.60;3.75;;;;;;;;;;5114546;28;20032;-31
2024/03/05 03:15:44;;;;;;;18.80;3.90;;;;;;;;;;5114670;28;20019;-31
2024/03/05 03:18:11;;;;;;;17.35;3.67;;;;;;;;;;5109244;28;20043;-32
2024/03/05 03:20:38;;;;;;;14.30;3.45;;;;;;;;;;5114863;28;20124;-32
2024/03/05 03:23:05;;;;;;;19.67;3.65;;;;;;;;;;5115511;28;20069;-31
2024/03/05 03:25:32;;;;;;;15.32;3.42;;;;;;;;;;5115282;28;20124;-31
2024/03/05 03:27:59;;;;;;;15.70;3.70;;;;;;;;;;5115579;28;20030;-30
2024/03/05 03:30:27;;;;;;;16.63;3.45;;;;;;;;;;5115451;28;20019;-30
2024/03/05 03:32:54;;;;;;;15.90;3.25;;;;;;;;;;5115154;28;20114;-31
2024/03/05 03:35:21;;;;;;;10.95;3.20;;;;;;;;;;5115203;28;20028;-30
2024/03/05 03:37:48;;;;;;;14.25;3.13;;;;;;;;;;5115209;28;20103;-30
2024/03/05 03:40:21;;;;;;;17.08;3.25;;;;;;;;;;5114580;28;20030;-30
2024/03/05 03:42:50;;;;;;;19.05;2.97;;;;;;;;;;5110992;28;20028;-28
2024/03/05 03:45:18;;;;;;;13.70;3.15;;;;;;;;;;5105671;28;20035;-28
2024/03/05 03:47:46;;;;;;;16.70;3.60;;;;;;;;;;5094619;28;20064;-27
2024/03/05 03:50:13;;;;;;;18.40;3.22;;;;;;;;;;5094665;28;20016;-28
2024/03/05 03:52:41;;;;;;;8.05;2.78;;;;;;;;;;5094666;28;20027;-28
2024/03/05 03:55:08;;;;;;;14.18;2.88;;;;;;;;;;5101769;28;20436;-29
2024/03/05 03:57:35;;;;;;;14.32;2.67;;;;;;;;;;5096537;28;20028;-30
2024/03/05 04:00:07;;;;;;;12.27;2.47;;;;;;;;;;5114566;28;20043;-31
2024/03/05 04:02:37;;;;;;;11.50;2.65;;;;;;;;;;5114098;28;20077;-30
2024/03/05 04:05:09;;;;;;;12.85;3.03;;;;;;;;;;5114479;28;20076;-30
2024/03/05 04:07:36;;;;;;;9.90;3.10;;;;;;;;;;5094251;28;20723;-28
2024/03/05 04:10:06;;;;;;;8.85;2.58;;;;;;;;;;5094211;28;20043;-28
2024/03/05 04:12:34;;;;;;;11.57;2.90;;;;;;;;;;5094114;28;20428;-28
2024/03/05 04:15:02;;;;;;;10.40;2.45;;;;;;;;;;5094060;28;20142;-29
2024/03/05 04:17:29;;;;;;;13.57;3.08;;;;;;;;;;5075953;28;20024;-28
2024/03/05 04:19:56;;;;;;;7.50;2.40;;;;;;;;;;5106980;28;20024;-28
2024/03/05 04:22:24;;;;;;;11.25;2.47;;;;;;;;;;5114315;28;20061;-28
2024/03/05 04:24:55;;;;;;;8.95;2.42;;;;;;;;;;5114209;28;20066;-28
2024/03/05 04:27:24;;;;;;;9.98;2.50;;;;;;;;;;5114274;28;20441;-27
2024/03/05 04:29:56;;;;;;;8.95;2.60;;;;;;;;;;5114103;28;20149;-31
2024/03/05 04:32:26;;;;;;;9.55;2.70;;;;;;;;;;5095906;28;20055;-28
2024/03/05 04:35:06;;;;;;;12.70;2.70;;;;;;;;;;5113995;28;20038;-28
2024/03/05 04:37:34;;;;;;;9.02;2.35;;;;;;;;;;5114106;28;20048;-28
2024/03/05 04:40:01;;;;;;;13.98;2.75;;;;;;;;;;5114062;28;20028;-28
2024/03/05 04:42:28;;;;;;;8.38;2.20;;;;;;;;;;5113990;28;20028;-28
2024/03/05 04:44:54;;;;;;;13.05;2.80;;;;;;;;;;5114026;28;20027;-27
2024/03/05 04:47:24;;;;;;;8.88;2.42;;;;;;;;;;5113849;28;20066;-28
2024/03/05 04:49:51;;;;;;;10.88;2.28;;;;;;;;;;5113539;28;20054;-28
2024/03/05 04:52:18;;;;;;;11.40;2.80;;;;;;;;;;5113958;28;20031;-28
2024/03/05 04:54:45;;;;;;;10.07;2.80;;;;;;;;;;5113772;28;20462;-28
2024/03/05 04:57:12;;;;;;;7.88;2.60;;;;;;;;;;5113829;28;20354;-28
2024/03/05 04:59:40;;;;;;;8.32;2.47;;;;;;;;;;5113645;28;20026;-29
2024/03/05 05:02:07;;;;;;;8.50;2.20;;;;;;;;;;5113529;28;20042;-28
2024/03/05 05:04:37;;;;;;;17.20;2.58;;;;;;;;;;5113305;28;20394;-29
2024/03/05 05:07:07;;;;;;;11.32;2.60;;;;;;;;;;5113335;28;20393;-32
2024/03/05 05:09:34;;;;;;;7.07;2.03;;;;;;;;;;5113567;28;20488;-29
2024/03/05 05:12:02;;;;;;;8.15;2.35;;;;;;;;;;5113150;28;20072;-29
2024/03/05 05:14:29;;;;;;;9.05;1.88;;;;;;;;;;5113297;28;20031;-29
2024/03/05 05:16:57;;;;;;;9.48;2.60;;;;;;;;;;5113333;28;20020;-30
2024/03/05 05:19:25;;;;;;;8.65;2.17;;;;;;;;;;5113328;28;20381;-31
2024/03/05 05:21:52;;;;;;;9.57;2.40;;;;;;;;;;5113042;28;20485;-30
2024/03/05 05:24:20;;;;;;;11.23;2.17;;;;;;;;;;5112845;28;20128;-30
2024/03/05 05:26:47;;;;;;;14.55;2.60;;;;;;;;;;5113160;28;20019;-32
2024/03/05 05:29:14;;;;;;;7.03;2.40;;;;;;;;;;5094686;28;20054;-30
2024/03/05 05:31:41;;;;;;;7.03;2.60;;;;;;;;;;5094664;28;20426;-30
2024/03/05 05:34:08;;;;;;;8.05;2.50;;;;;;;;;;5112902;28;20028;-32
2024/03/05 05:36:35;;;;;;;5.28;1.75;;;;;;;;;;5112899;28;20035;-29
2024/03/05 05:39:04;;;;;;;8.93;2.08;;;;;;;;;;5112695;28;20031;-32
2024/03/05 05:41:33;;;;;;;11.40;1.80;;;;;;;;;;5112677;28;20040;-30
2024/03/05 05:44:00;;;;;;;8.35;2.20;;;;;;;;;;5112970;28;20019;-30
2024/03/05 05:46:28;;;;;;;8.77;2.22;;;;;;;;;;5112769;28;20027;-32
2024/03/05 05:48:55;;;;;;;5.55;1.83;;;;;;;;;;5112647;28;20107;-28
2024/03/05 05:51:24;;;;;;;8.77;2.10;;;;;;;;;;5112406;28;20034;-28
2024/03/05 05:53:51;;;;;;;5.22;1.70;;;;;;;;;;5112522;28;20031;-28
2024/03/05 05:56:18;;;;;;;7.00;1.90;;;;;;;;;;5112606;28;20054;-28
2024/03/05 05:58:45;;;;;;;6.53;2.08;;;;;;;;;;5112543;28;20054;-29
2024/03/05 06:01:13;;;;;;;7.55;2.10;;;;;;;;;;5108449;28;20114;-27
2024/03/05 06:03:44;;;;;;;5.60;1.90;;;;;;;;;;5111115;28;20042;-31
2024/03/05 06:06:20;;;;;;;7.85;1.88;;;;;;;;;;5091893;28;20044;-30
2024/03/05 06:08:47;;;;;;;8.43;2.33;;;;;;;;;;5092033;28;20028;-30
2024/03/05 06:11:14;;;;;;;7.03;2.05;;;;;;;;;;5100498;28;20077;-28
2024/03/05 06:13:41;;;;;;;7.68;2.10;;;;;;;;;;5094040;28;20024;-28
2024/03/05 06:16:08;;;;;;;8.63;2.20;;;;;;;;;;5112189;28;20031;-29
2024/03/05 06:18:36;;;;;;;11.75;2.22;;;;;;;;;;5112263;28;20028;-30
2024/03/05 06:21:05;;;;;;;8.13;2.20;;;;;;;;;;5112167;28;20500;-31
2024/03/05 06:23:32;;;;;;;7.20;1.90;;;;;;;;;;5111574;28;20030;-30
2024/03/05 06:25:59;;;;;;;7.20;1.88;;;;;;;;;;5111963;28;20123;-31
2024/03/05 06:28:27;;;;;;;5.22;1.70;;;;;;;;;;5112126;28;20032;-29
2024/03/05 06:30:54;;;;;;;7.47;2.00;;;;;;;;;;5112296;28;20039;-30
2024/03/05 06:33:20;;;;;;;4.43;1.90;;;;;;;;;;5112091;28;20038;-30
2024/03/05 06:35:48;;;;;;;5.05;1.80;;;;;;;;;;5111941;28;20038;-30
2024/03/05 06:38:15;;;;;;;8.75;2.10;;;;;;;;;;5112139;28;20035;-29
2024/03/05 06:40:42;;;;;;;8.10;2.30;;;;;;;;;;5111972;28;20020;-31
2024/03/05 06:43:30;;;;;;;7.05;1.88;;;;;;;;;;5111916;28;20064;-34
2024/03/05 06:45:57;;;;;;;8.85;2.20;;;;;;;;;;5111842;28;20065;-32
2024/03/05 06:48:26;;;;;;;5.50;1.50;;;;;;;;;;5112073;28;20039;-32
2024/03/05 06:51:04;;;;;;;6.80;1.88;;;;;;;;;;5111819;28;20024;-31
2024/03/05 06:59:03;;;;;;;6.10;1.95;;;;;;;;;;5105343;28;20051;-31
2024/03/05 07:01:31;;;;;;;4.35;1.50;;;;;;;;;;5110945;28;20035;-27
2024/03/05 07:03:58;;;;;;;6.10;1.85;;;;;;;;;;5091290;28;20032;-29
2024/03/05 07:06:25;;;;;;;4.55;1.58;;;;;;;;;;5101077;28;20055;-28
2024/03/05 07:08:53;;;;;;;4.07;1.90;;;;;;;;;;5092370;28;20039;-30
2024/03/05 07:11:20;;;;;;;6.43;1.75;;;;;;;;;;5091189;28;20035;-32
2024/03/05 07:13:48;;;;;;;10.30;2.15;;;;;;;;;;5073175;28;20028;-29
2024/03/05 07:16:16;;;;;;;4.75;1.60;;;;;;;;;;5091272;28;20081;-31
2024/03/05 07:18:53;;;;;;;7.03;2.05;;;;;;;;;;5091212;28;20050;-29
2024/03/05 07:21:24;;;;;;;6.35;1.80;;;;;;;;;;5091298;28;20145;-31
2024/03/05 07:23:51;;;;;;;4.85;1.90;;;;;;;;;;5091119;28;20025;-31
2024/03/05 07:26:18;;;;;;;7.03;1.80;;;;;;;;;;5091165;28;20032;-30
2024/03/05 07:28:45;;;;;;;7.72;1.90;;;;;;;;;;5091192;28;20024;-31
2024/03/05 07:31:14;;;;;;;8.23;2.00;;;;;;;;;;5091087;28;20028;-29
2024/03/05 07:33:41;;;;;;;6.15;1.67;;;;;;;;;;5091184;28;20177;-30
2024/03/05 07:36:08;;;;;;;5.60;1.77;;;;;;;;;;5093471;28;20363;-31
2024/03/05 07:38:35;;;;;;;6.18;1.73;;;;;;;;;;5094886;28;20020;-32
2024/03/05 07:41:02;;;;;;;6.78;1.60;;;;;;;;;;5102564;28;20591;-28
2024/03/05 07:43:29;;;;;;;6.85;1.55;;;;;;;;;;5115298;28;20024;-27
2024/03/05 07:45:56;;;;;;;7.35;1.65;;;;;;;;;;5115075;28;20030;-28
2024/03/05 07:48:23;;;;;;;5.05;1.92;;;;;;;;;;5114886;28;20023;-28
2024/03/05 07:50:50;;;;;;;6.38;1.88;;;;;;;;;;5115206;28;20107;-28
2024/03/05 07:53:19;;;;;;;6.15;1.80;;;;;;;;;;5114999;28;20035;-28
2024/03/05 07:55:46;;;;;;;6.18;1.65;;;;;;;;;;5114778;28;20102;-28
2024/03/05 07:58:13;;;;;;;4.97;1.50;;;;;;;;;;5114984;28;20023;-28
2024/03/05 08:00:40;;;;;;;5.20;2.03;;;;;;;;;;5114888;28;20073;-28
2024/03/05 08:03:06;;;;;;;6.78;1.90;;;;;;;;;;5114872;28;20493;-28
2024/03/05 08:05:34;;;;;;;6.88;1.83;;;;;;;;;;5114616;28;20023;-28
2024/03/05 08:08:02;;;;;;;5.47;1.77;;;;;;;;;;5114571;28;20519;-28
2024/03/05 08:10:29;;;;;;;5.78;1.95;;;;;;;;;;5114637;28;20027;-27
2024/03/05 08:12:56;;;;;;;3.83;1.60;;;;;;;;;;5114636;28;20032;-28
2024/03/05 08:15:24;;;;;;;8.13;1.92;;;;;;;;;;5114329;28;20085;-28
2024/03/05 08:17:51;;;;;;;3.47;1.48;;;;;;;;;;5114501;28;20506;-27
2024/03/05 08:20:20;;;;;;;4.95;1.75;;;;;;;;;;5114531;28;20568;-28
2024/03/05 08:22:47;;;;;;;5.15;1.90;;;;;;;;;;5114410;28;20084;-27
2024/03/05 08:25:15;;;;;;;6.45;1.67;;;;;;;;;;5114098;28;20078;-28
2024/03/05 08:27:46;;;;;;;7.35;1.77;;;;;;;;;;5114226;28;20027;-29
2024/03/05 08:30:15;;;;;;;5.90;2.05;;;;;;;;;;5114309;28;20072;-28
2024/03/05 08:32:43;;;;;;;5.32;2.05;;;;;;;;;;5114125;28;20031;-28
2024/03/05 08:35:14;;;;;;;5.03;1.50;;;;;;;;;;5114147;28;20020;-27
2024/03/05 08:37:48;;;;;;;8.70;2.03;;;;;;;;;;5114165;28;20051;-28
2024/03/05 08:40:16;;;;;;;5.15;1.85;;;;;;;;;;5114135;28;20039;-28
2024/03/05 08:42:46;;;;;;;8.45;2.08;;;;;;;;;;5113946;28;20032;-29
2024/03/05 08:45:23;;;;;;;3.58;1.50;;;;;;;;;;5113892;28;20038;-27
2024/03/05 08:47:51;;;;;;;6.68;1.92;;;;;;;;;;5113409;28;20531;-27
2024/03/05 08:50:19;;;;;;;5.13;1.60;;;;;;;;;;5113931;28;20031;-28
2024/03/05 08:52:46;;;;;;;5.65;1.90;;;;;;;;;;5113956;28;20036;-28
2024/03/05 08:55:15;;;;;;;5.25;2.05;;;;;;;;;;5095344;28;20023;-28
2024/03/05 08:57:42;;;;;;;5.40;1.73;;;;;;;;;;5113617;28;20442;-29
2024/03/05 09:00:14;;;;;;;6.13;1.90;;;;;;;;;;5113643;28;20432;-28
2024/03/05 09:02:45;;;;;;;8.82;1.98;;;;;;;;;;5113533;28;20035;-28
2024/03/05 09:05:12;;;;;;;5.78;1.77;;;;;;;;;;5113444;28;20105;-28
2024/03/05 09:07:39;;;;;;;5.57;1.90;;;;;;;;;;5113532;28;20121;-28
2024/03/05 09:10:06;;;;;;;6.88;2.05;;;;;;;;;;5113580;28;20042;-28
2024/03/05 09:12:33;;;;;;;7.43;2.25;;;;;;;;;;5113375;28;20031;-28
2024/03/05 09:15:00;;;;;;;6.82;1.85;;;;;;;;;;5113402;28;20023;-27
2024/03/05 09:17:27;;;;;;;6.13;2.13;;;;;;;;;;5112885;28;20507;-27
2024/03/05 09:19:54;;;;;;;4.82;1.65;;;;;;;;;;5113254;28;20024;-28
2024/03/05 09:22:21;;;;;;;6.80;1.88;;;;;;;;;;5113224;28;20050;-28
2024/03/05 09:24:48;;;;;;;8.32;2.25;;;;;;;;;;5113000;28;20497;-28
2024/03/05 09:27:15;;;;;;;6.53;1.90;;;;;;;;;;5113218;28;20031;-28
2024/03/05 09:29:43;;;;;;;6.57;1.92;;;;;;;;;;5113124;28;20015;-27
2024/03/05 09:32:10;;;;;;;5.68;1.90;;;;;;;;;;5113100;28;20035;-28
2024/03/05 09:34:38;;;;;;;9.35;2.05;;;;;;;;;;5094718;28;20166;-28
2024/03/05 09:37:06;;;;;;;8.05;1.98;;;;;;;;;;5092616;28;20032;-30
2024/03/05 09:39:36;;;;;;;7.55;2.05;;;;;;;;;;5092456;28;20040;-28
2024/03/05 09:42:03;;;;;;;8.02;1.90;;;;;;;;;;5092369;28;20036;-28
2024/03/05 09:44:31;;;;;;;8.40;2.20;;;;;;;;;;5092407;28;20067;-29
2024/03/05 09:46:58;;;;;;;9.15;2.10;;;;;;;;;;5092365;28;20028;-28
2024/03/05 09:49:28;;;;;;;7.45;2.38;;;;;;;;;;5092283;28;20766;-28
2024/03/05 09:51:56;;;;;;;9.25;2.25;;;;;;;;;;5092255;28;20661;-29
2024/03/05 09:54:23;;;;;;;10.07;2.67;;;;;;;;;;5092216;28;20028;-28
2024/03/05 09:56:51;;;;;;;8.50;2.20;;;;;;;;;;5094549;28;20669;-31
2024/03/05 09:59:19;;;;;;;10.75;3.05;;;;;;;;;;5108732;28;20028;-28
2024/03/05 10:01:50;;;;;;;15.00;3.47;;;;;;;;;;5112393;28;20039;-29
2024/03/05 10:04:17;;;;;;;9.35;2.80;;;;;;;;;;5112599;28;20457;-31
2024/03/05 10:06:47;;;;;;;9.75;2.88;;;;;;;;;;5112333;28;20108;-30
2024/03/05 10:09:15;;;;;;;19.60;3.75;;;;;;;;;;5112443;28;20024;-28
2024/03/05 10:11:42;;;;;;;18.23;3.45;;;;;;;;;;5105217;28;20024;-28
2024/03/05 10:14:10;;;;;;;16.73;3.40;;;;;;;;;;5119041;27;20458;-28
2024/03/05 10:16:37;;;;;;;21.05;4.53;;;;;;;;;;5132850;27;20027;-29
2024/03/05 10:19:15;;;;;;;17.55;2.90;;;;;;;;;;5132847;27;20039;-30
2024/03/05 10:21:42;;;;;;;10.43;2.80;;;;;;;;;;5132465;27;20688;-30
2024/03/05 10:24:10;;;;;;;17.50;3.97;;;;;;;;;;5132586;27;20049;-33
2024/03/05 10:26:38;;;;;;;13.77;3.40;;;;;;;;;;5132682;27;20031;-32
2024/03/05 10:29:09;;;;;;;13.45;3.35;;;;;;;;;;5132714;27;20057;-33
2024/03/05 10:31:39;;;;;;;28.58;4.78;;;;;;;;;;5103665;27;20444;-28
2024/03/05 10:34:06;;;;;;;16.00;3.72;;;;;;;;;;5106896;28;20042;-32
2024/03/05 10:36:34;;;;;;;15.95;3.45;;;;;;;;;;5111702;28;20046;-28
2024/03/05 10:39:02;;;;;;;12.73;3.30;;;;;;;;;;5097144;28;20089;-29
2024/03/05 10:41:30;;;;;;;19.75;3.20;;;;;;;;;;5089815;28;20040;-29
2024/03/05 10:44:01;;;;;;;18.27;4.22;;;;;;;;;;5091592;28;20024;-28
2024/03/05 10:46:32;;;;;;;15.80;3.45;;;;;;;;;;5102887;28;20067;-29
2024/03/05 10:49:01;;;;;;;15.20;3.22;;;;;;;;;;5111492;28;20047;-28
2024/03/05 10:51:32;;;;;;;10.07;3.10;;;;;;;;;;5111146;28;20032;-28
2024/03/05 10:53:59;;;;;;;16.48;3.25;;;;;;;;;;5111297;28;20027;-31
2024/03/05 10:56:26;;;;;;;19.35;3.95;;;;;;;;;;5111145;28;20536;-28
2024/03/05 11:01:26;;;;;;;15.43;3.47;;;;;;;;;;5093617;28;20028;-30
2024/03/05 11:03:55;;;;;;;;;;;;;;;;;;5110679;28;20055;-29
2024/03/05 11:06:22;;;;;;;19.77;3.65;;;;;;;;;;5110883;28;19951;-30
2024/03/05 11:08:49;;;;;;;18.75;3.67;;;;;;;;;;5105611;28;20028;-29
2024/03/05 11:11:18;;;;;;;17.33;3.97;;;;;;;;;;5113450;28;20031;-27
2024/03/05 11:13:49;;;;;;;12.27;3.13;;;;;;;;;;5114846;28;20028;-30
2024/03/05 11:16:18;;;;;;;15.55;3.45;;;;;;;;;;5114988;28;20031;-28
2024/03/05 11:18:50;;;;;;;17.65;3.75;;;;;;;;;;5114754;28;20089;-31
2024/03/05 11:21:17;;;;;;;14.48;3.47;;;;;;;;;;5114944;28;20473;-27
2024/03/05 11:23:55;;;;;;;15.13;3.25;;;;;;;;;;5115345;28;20039;-29
2024/03/05 11:26:26;;;;;;;19.42;3.80;;;;;;;;;;5115560;28;20044;-32
2024/03/05 11:29:05;;;;;;;14.20;2.90;;;;;;;;;;5115598;28;20027;-29
2024/03/05 11:31:32;;;;;;;15.75;3.55;;;;;;;;;;5115273;28;20084;-31
2024/03/05 11:34:05;;;;;;;12.15;3.15;;;;;;;;;;5115465;28;20774;-31
2024/03/05 11:36:36;;;;;;;16.70;3.83;;;;;;;;;;5115222;28;20081;-30
2024/03/05 11:39:09;;;;;;;11.70;3.38;;;;;;;;;;5115282;28;20031;-29
2024/03/05 11:41:41;;;;;;;17.02;3.97;;;;;;;;;;5115117;28;20035;-29
2024/03/05 11:44:11;;;;;;;12.15;2.97;;;;;;;;;;5115432;28;20508;-30
2024/03/05 11:46:49;;;;;;;13.65;3.13;;;;;;;;;;5115231;28;20389;-31
2024/03/05 11:49:18;;;;;;;13.68;2.97;;;;;;;;;;5114983;28;20077;-31
2024/03/05 11:51:46;;;;;;;14.73;3.58;;;;;;;;;;5115023;28;20107;-29
2024/03/05 11:54:14;;;;;;;10.27;3.08;;;;;;;;;;5115098;28;20023;-29
2024/03/05 11:56:42;;;;;;;12.98;3.28;;;;;;;;;;5096275;28;20107;-32
2024/03/05 11:59:09;;;;;;;11.23;3.00;;;;;;;;;;5115092;28;20027;-31
2024/03/05 12:01:36;;;;;;;12.70;3.25;;;;;;;;;;5114898;28;20036;-31
2024/03/05 12:04:07;;;;;;;14.32;3.05;;;;;;;;;;5114951;28;20024;-29
2024/03/05 12:06:43;;;;;;;12.10;3.50;;;;;;;;;;5114948;28;20028;-29
2024/03/05 12:09:20;;;;;;;13.85;3.08;;;;;;;;;;5114834;28;20031;-30
2024/03/05 12:12:05;;;;;;;12.05;3.22;;;;;;;;;;5114577;28;20020;-30
2024/03/05 12:14:32;;;;;;;15.85;3.30;;;;;;;;;;5114498;28;20039;-29
2024/03/05 12:17:03;;;;;;;12.60;3.17;;;;;;;;;;5114646;28;20035;-32
2024/03/05 12:19:34;;;;;;;14.77;3.50;;;;;;;;;;5114497;28;20080;-30
2024/03/05 12:22:01;;;;;;;18.50;3.78;;;;;;;;;;5113587;28;20028;-29
2024/03/05 12:24:29;;;;;;;10.80;3.08;;;;;;;;;;5114308;28;20042;-30
2024/03/05 12:26:56;;;;;;;18.17;3.47;;;;;;;;;;5114362;28;20031;-30
2024/03/05 12:29:33;;;;;;;15.30;3.33;;;;;;;;;;5114248;28;20057;-32
2024/03/05 12:32:04;;;;;;;14.38;3.25;;;;;;;;;;5114401;28;20032;-30
2024/03/05 12:34:32;;;;;;;15.75;3.00;;;;;;;;;;5114326;28;20073;-30
2024/03/05 12:36:59;;;;;;;10.07;3.28;;;;;;;;;;5114031;28;20058;-29
2024/03/05 12:39:28;;;;;;;12.82;3.42;;;;;;;;;;5114530;28;20487;-30
2024/03/05 12:42:06;;;;;;;11.25;3.20;;;;;;;;;;5114202;28;20378;-31
2024/03/05 12:44:33;;;;;;;15.52;3.25;;;;;;;;;;5113932;28;20023;-31
2024/03/05 12:47:11;;;;;;;13.20;3.42;;;;;;;;;;5114090;28;20028;-29
2024/03/05 12:49:40;;;;;;;11.45;3.15;;;;;;;;;;5114070;28;20076;-29
2024/03/05 12:52:08;;;;;;;11.55;3.38;;;;;;;;;;5113848;28;20489;-29
2024/03/05 12:54:35;;;;;;;17.27;4.25;;;;;;;;;;5113915;28;20027;-30
2024/03/05 12:57:03;;;;;;;9.93;2.92;;;;;;;;;;5113909;28;20019;-29
2024/03/05 12:59:30;;;;;;;18.42;3.95;;;;;;;;;;5113849;28;20114;-31
2024/03/05 13:01:58;;;;;;;13.52;3.15;;;;;;;;;;5113710;28;20482;-32
2024/03/05 13:04:25;;;;;;;17.27;4.45;;;;;;;;;;5113379;28;20081;-30
2024/03/05 13:06:53;;;;;;;15.70;3.53;;;;;;;;;;5113531;28;20027;-29
2024/03/05 13:09:21;;;;;;;14.70;3.15;;;;;;;;;;5113643;28;20023;-30
2024/03/05 13:11:49;;;;;;;17.30;3.45;;;;;;;;;;5113628;28;20489;-30
2024/03/05 13:14:16;;;;;;;14.32;3.05;;;;;;;;;;5113426;28;20020;-31
2024/03/05 13:16:44;;;;;;;11.98;3.13;;;;;;;;;;5113420;28;20096;-29
2024/03/05 13:19:11;;;;;;;11.25;3.60;;;;;;;;;;5113463;28;20102;-29
2024/03/05 13:21:42;;;;;;;16.55;3.40;;;;;;;;;;5113337;28;20106;-29
2024/03/05 13:24:12;;;;;;;10.55;3.17;;;;;;;;;;5113172;28;20027;-31
2024/03/05 13:26:43;;;;;;;12.80;3.28;;;;;;;;;;5113188;28;20811;-31
2024/03/05 13:29:10;;;;;;;14.70;3.45;;;;;;;;;;5113227;28;20024;-29
2024/03/05 13:31:38;;;;;;;11.27;3.22;;;;;;;;;;5113218;28;20063;-30
2024/03/05 13:34:08;;;;;;;11.57;3.22;;;;;;;;;;5113044;28;20027;-30
2024/03/05 13:36:38;;;;;;;10.73;2.80;;;;;;;;;;5112931;28;20111;-30
2024/03/05 13:39:08;;;;;;;17.80;3.75;;;;;;;;;;5112951;28;20031;-30
2024/03/05 13:41:36;;;;;;;9.02;2.80;;;;;;;;;;5112853;28;20027;-31
2024/03/05 13:44:04;;;;;;;10.80;2.88;;;;;;;;;;5113119;28;20028;-32
2024/03/05 13:46:31;;;;;;;11.65;2.83;;;;;;;;;;5112710;28;20039;-32
2024/03/05 13:48:58;;;;;;;11.52;3.00;;;;;;;;;;5094245;28;20036;-30
2024/03/05 13:51:29;;;;;;;14.43;3.70;;;;;;;;;;5112838;28;20114;-31
2024/03/05 13:53:58;;;;;;;13.93;2.97;;;;;;;;;;5112770;28;20114;-29
2024/03/05 13:56:25;;;;;;;14.27;3.17;;;;;;;;;;5112636;28;20031;-31
2024/03/05 13:58:52;;;;;;;12.02;3.15;;;;;;;;;;5112737;28;20035;-30
2024/03/05 14:01:19;;;;;;;13.55;2.95;;;;;;;;;;5112533;28;20474;-30
2024/03/05 14:03:46;;;;;;;12.30;2.83;;;;;;;;;;5112454;28;20028;-29
2024/03/05 14:06:12;;;;;;;13.02;2.97;;;;;;;;;;5112524;28;20564;-30
2024/03/05 14:08:41;;;;;;;14.65;2.63;;;;;;;;;;5112569;28;20028;-35
2024/03/05 14:11:08;;;;;;;12.20;3.28;;;;;;;;;;5112578;28;20502;-33
2024/03/05 14:13:35;;;;;;;11.45;2.92;;;;;;;;;;5112449;28;20023;-32
2024/03/05 14:16:06;;;;;;;9.23;2.72;;;;;;;;;;5112322;28;20481;-32
2024/03/05 14:18:33;;;;;;;12.90;3.35;;;;;;;;;;5112280;28;20043;-32
2024/03/05 14:21:01;;;;;;;9.43;2.50;;;;;;;;;;5112454;28;20392;-37
2024/03/05 14:23:28;;;;;;;16.38;3.38;;;;;;;;;;5112250;28;20111;-34
2024/03/05 14:25:55;;;;;;;9.15;2.75;;;;;;;;;;5111978;28;20047;-32
2024/03/05 14:28:22;;;;;;;15.68;3.22;;;;;;;;;;5112291;28;20040;-32
2024/03/05 14:30:49;;;;;;;11.38;3.28;;;;;;;;;;5112191;28;20077;-34
2024/03/05 14:33:16;;;;;;;11.88;3.25;;;;;;;;;;5112122;28;20055;-32
2024/03/05 14:35:43;;;;;;;11.38;2.75;;;;;;;;;;5112126;28;20739;-32
2024/03/05 14:38:16;;;;;;;17.17;2.83;;;;;;;;;;5112036;28;20050;-33
2024/03/05 14:40:44;;;;;;;13.15;2.90;;;;;;;;;;5111892;28;20489;-32
2024/03/05 14:43:11;;;;;;;12.20;2.80;;;;;;;;;;5111992;28;20067;-30
2024/03/05 14:45:41;;;;;;;12.90;3.00;;;;;;;;;;5111623;28;20031;-31
2024/03/05 14:48:08;;;;;;;10.57;2.60;;;;;;;;;;5111873;28;20107;-35
2024/03/05 14:50:35;;;;;;;14.18;2.83;;;;;;;;;;5111980;28;20054;-33